Time;durP1;ratioP1;P1;durP2;ratioP2;P2;SDS_P1;SDS_P2;PMS_P1;PMS_P2;Temp;Humidity;BMP_temperature;BMP_pressure;BME280_temperature;BME280_humidity;BME280_pressure;Samples;Min_cycle;Max_cycle;Signal;HPM_P1;HPM_P2
2022/10/24 00:02:08;;;;;;;14.85;3.17;;;14.90;99.90;;;;;;5072877;28;20040;-63
2022/10/24 00:04:35;;;;;;;21.67;3.38;;;14.90;99.90;;;;;;5073695;28;20037;-63
2022/10/24 00:07:02;;;;;;;16.08;2.97;;;14.80;99.90;;;;;;5076264;28;20049;-63
2022/10/24 00:09:28;;;;;;;15.45;2.85;;;14.80;99.90;;;;;;5076893;28;20042;-61
2022/10/24 00:11:55;;;;;;;15.80;3.38;;;14.70;99.90;;;;;;5076262;28;20544;-62
2022/10/24 00:14:22;;;;;;;13.88;2.53;;;14.70;99.90;;;;;;5076166;28;20449;-60
2022/10/24 00:16:48;;;;;;;13.60;2.80;;;14.70;99.90;;;;;;5076538;28;20044;-62
2022/10/24 00:19:15;;;;;;;12.43;2.90;;;14.70;99.90;;;;;;5076578;28;20040;-63
2022/10/24 00:21:42;;;;;;;14.57;2.92;;;14.70;99.90;;;;;;5076598;28;20048;-60
2022/10/24 00:24:09;;;;;;;15.50;2.38;;;14.70;99.90;;;;;;5076385;28;20041;-63
2022/10/24 00:26:35;;;;;;;14.98;2.63;;;14.70;99.90;;;;;;5076024;28;20078;-63
2022/10/24 00:29:02;;;;;;;16.27;3.25;;;14.70;99.90;;;;;;5075994;28;20041;-60
2022/10/24 00:31:29;;;;;;;15.20;2.90;;;14.70;99.90;;;;;;5076326;28;20090;-61
2022/10/24 00:33:56;;;;;;;22.10;3.28;;;14.70;99.90;;;;;;5075923;28;20044;-62
2022/10/24 00:36:22;;;;;;;14.90;3.40;;;14.70;99.90;;;;;;5075849;28;20480;-64
2022/10/24 00:38:49;;;;;;;16.77;3.50;;;14.60;99.90;;;;;;5075734;28;20029;-65
2022/10/24 00:41:16;;;;;;;14.07;3.15;;;14.60;99.90;;;;;;5075712;28;20447;-63
2022/10/24 00:43:42;;;;;;;15.70;3.30;;;14.60;99.90;;;;;;5075917;28;20037;-63
2022/10/24 00:46:09;;;;;;;12.60;2.53;;;14.50;99.90;;;;;;5075555;28;20045;-63
2022/10/24 00:48:36;;;;;;;14.55;2.53;;;14.50;99.90;;;;;;5076013;28;20040;-64
2022/10/24 00:51:03;;;;;;;16.33;2.90;;;14.50;99.90;;;;;;5075443;28;20442;-64
2022/10/24 00:53:29;;;;;;;10.63;2.28;;;14.40;99.90;;;;;;5075521;28;20119;-65
2022/10/24 00:55:56;;;;;;;11.98;2.60;;;14.50;99.90;;;;;;5075879;28;20416;-63
2022/10/24 00:58:23;;;;;;;10.75;2.40;;;14.50;99.90;;;;;;5075534;28;20123;-63
2022/10/24 01:00:49;;;;;;;14.07;2.83;;;14.50;99.90;;;;;;5075366;28;20127;-63
2022/10/24 01:03:16;;;;;;;12.52;3.35;;;14.50;99.90;;;;;;5075169;28;20044;-63
2022/10/24 01:05:43;;;;;;;18.95;3.30;;;14.50;99.90;;;;;;5075356;28;20169;-62
2022/10/24 01:08:10;;;;;;;22.35;3.30;;;14.50;99.90;;;;;;5075089;28;20053;-63
2022/10/24 01:10:37;;;;;;;17.45;3.33;;;14.50;99.90;;;;;;5075169;28;20500;-62
2022/10/24 01:13:03;;;;;;;15.40;3.33;;;14.50;99.90;;;;;;5075603;28;20395;-61
2022/10/24 01:15:30;;;;;;;20.52;3.58;;;14.50;99.90;;;;;;5074397;28;20115;-60
2022/10/24 01:17:57;;;;;;;20.17;4.18;;;14.50;99.90;;;;;;5070539;28;20041;-59
2022/10/24 01:20:23;;;;;;;18.30;3.38;;;14.50;99.90;;;;;;5070020;28;20120;-62
2022/10/24 01:22:50;;;;;;;20.20;3.33;;;14.50;99.90;;;;;;5072942;28;20036;-59
2022/10/24 01:25:17;;;;;;;16.35;3.22;;;14.50;99.90;;;;;;5073063;28;20041;-62
2022/10/24 01:27:44;;;;;;;16.10;3.47;;;14.50;99.90;;;;;;5062225;28;20044;-60
2022/10/24 01:30:11;;;;;;;21.65;3.67;;;14.50;99.90;;;;;;5063041;28;20045;-63
2022/10/24 01:32:37;;;;;;;17.30;3.10;;;14.50;99.90;;;;;;5075309;28;20123;-59
2022/10/24 01:35:04;;;;;;;14.43;2.88;;;14.50;99.90;;;;;;5070160;28;20082;-62
2022/10/24 01:37:31;;;;;;;14.75;3.15;;;14.50;99.90;;;;;;5065798;28;20041;-61
2022/10/24 01:39:57;;;;;;;16.40;3.20;;;14.50;99.90;;;;;;5074223;28;20115;-62
2022/10/24 01:42:24;;;;;;;12.07;2.60;;;14.50;99.90;;;;;;5074899;28;20086;-63
2022/10/24 01:44:51;;;;;;;15.65;2.92;;;14.40;99.90;;;;;;5072251;28;20067;-62
2022/10/24 01:47:17;;;;;;;14.55;2.30;;;14.40;99.90;;;;;;5074128;28;20119;-63
2022/10/24 01:49:44;;;;;;;10.88;2.60;;;14.40;99.90;;;;;;5074328;28;20484;-60
2022/10/24 01:52:11;;;;;;;11.40;2.08;;;14.40;99.90;;;;;;5074412;28;20093;-60
2022/10/24 01:54:39;;;;;;;15.65;2.45;;;14.40;99.90;;;;;;5070216;28;20037;-63
2022/10/24 01:57:05;;;;;;;16.60;2.20;;;14.40;99.90;;;;;;5054602;28;20084;-61
2022/10/24 01:59:32;;;;;;;14.70;2.10;;;14.40;99.90;;;;;;5058183;28;20048;-61
2022/10/24 02:01:59;;;;;;;9.15;2.00;;;14.40;99.90;;;;;;5074762;28;20086;-62
2022/10/24 02:04:25;;;;;;;12.15;2.30;;;14.40;99.90;;;;;;5071361;28;20086;-62
2022/10/24 02:06:52;;;;;;;12.55;2.35;;;14.40;99.90;;;;;;5054377;28;20045;-61
2022/10/24 02:09:19;;;;;;;6.75;1.45;;;14.40;99.90;;;;;;5054079;28;20056;-61
2022/10/24 02:11:46;;;;;;;7.15;1.42;;;14.40;99.90;;;;;;5055362;28;20065;-61
2022/10/24 02:14:12;;;;;;;5.82;1.52;;;14.40;99.90;;;;;;5058412;28;20051;-61
2022/10/24 02:16:39;;;;;;;6.78;1.20;;;14.40;99.90;;;;;;5073331;28;20428;-63
2022/10/24 02:19:06;;;;;;;7.45;1.95;;;14.40;99.90;;;;;;5074184;28;20099;-61
2022/10/24 02:21:32;;;;;;;6.50;1.40;;;14.40;99.90;;;;;;5071876;28;20093;-63
2022/10/24 02:24:00;;;;;;;7.95;1.33;;;14.40;99.90;;;;;;5067043;28;20041;-61
2022/10/24 02:26:26;;;;;;;4.53;1.20;;;14.30;99.90;;;;;;5053687;28;20091;-62
2022/10/24 02:28:54;;;;;;;5.35;1.10;;;14.30;99.90;;;;;;5053428;28;20045;-61
2022/10/24 02:31:20;;;;;;;5.47;0.90;;;14.30;99.90;;;;;;5060922;28;20055;-62
2022/10/24 02:33:47;;;;;;;4.82;1.00;;;14.30;99.90;;;;;;5073477;28;20040;-61
2022/10/24 02:36:14;;;;;;;6.07;1.50;;;14.30;99.90;;;;;;5073677;28;20135;-60
2022/10/24 02:38:41;;;;;;;5.38;1.00;;;14.30;99.90;;;;;;5070495;28;20060;-62
2022/10/24 02:41:07;;;;;;;3.42;0.68;;;14.20;99.90;;;;;;5073051;28;20033;-60
2022/10/24 02:43:34;;;;;;;3.75;0.82;;;14.10;99.90;;;;;;5073686;28;20113;-60
2022/10/24 02:46:01;;;;;;;3.90;0.50;;;14.10;99.90;;;;;;5072731;28;20041;-61
2022/10/24 02:48:27;;;;;;;2.50;0.55;;;14.10;99.90;;;;;;5073468;28;20048;-60
2022/10/24 02:50:54;;;;;;;2.90;0.60;;;14.00;99.90;;;;;;5071676;28;20089;-61
2022/10/24 02:53:21;;;;;;;4.22;0.65;;;14.00;99.90;;;;;;5073678;28;20550;-61
2022/10/24 02:55:48;;;;;;;4.40;0.70;;;14.00;99.90;;;;;;5072485;28;20098;-60
2022/10/24 02:58:14;;;;;;;3.92;0.80;;;13.90;99.90;;;;;;5073794;28;20127;-63
2022/10/24 03:00:41;;;;;;;3.28;0.63;;;13.90;99.90;;;;;;5063605;28;20131;-60
2022/10/24 03:03:08;;;;;;;3.15;0.50;;;13.90;99.90;;;;;;5057698;28;20060;-63
2022/10/24 03:05:34;;;;;;;4.13;0.98;;;13.90;99.90;;;;;;5073308;28;20041;-62
2022/10/24 03:08:01;;;;;;;2.83;0.70;;;14.00;99.90;;;;;;5073238;28;20404;-61
2022/10/24 03:10:28;;;;;;;4.60;0.90;;;14.00;99.90;;;;;;5071889;28;20086;-60
2022/10/24 03:12:54;;;;;;;4.60;0.93;;;14.00;99.90;;;;;;5071453;28;20100;-61
2022/10/24 03:15:21;;;;;;;4.10;0.80;;;14.00;99.90;;;;;;5072723;28;20151;-62
2022/10/24 03:17:48;;;;;;;2.88;1.25;;;14.00;99.90;;;;;;5070403;28;20047;-63
2022/10/24 03:20:14;;;;;;;3.65;0.93;;;14.00;99.90;;;;;;5073264;28;20071;-64
2022/10/24 03:22:41;;;;;;;2.53;0.82;;;14.00;99.90;;;;;;5073134;28;20110;-62
2022/10/24 03:25:10;;;;;;;5.00;0.90;;;14.00;99.90;;;;;;5072805;28;20037;-59
2022/10/24 03:27:36;;;;;;;2.90;0.75;;;14.00;99.90;;;;;;5072258;28;20049;-62
2022/10/24 03:30:03;;;;;;;4.45;0.88;;;14.00;99.90;;;;;;5071673;28;20127;-60
2022/10/24 03:32:30;;;;;;;3.30;0.80;;;14.00;99.90;;;;;;5073260;28;20087;-61
2022/10/24 03:34:57;;;;;;;4.43;0.63;;;14.00;99.90;;;;;;5073297;28;20533;-60
2022/10/24 03:37:23;;;;;;;3.08;0.80;;;14.00;99.90;;;;;;5073412;28;20075;-60
2022/10/24 03:39:50;;;;;;;5.07;0.90;;;14.00;99.90;;;;;;5073250;28;20068;-60
2022/10/24 03:42:17;;;;;;;3.22;0.85;;;14.00;99.90;;;;;;5073997;28;20456;-60
2022/10/24 03:44:44;;;;;;;5.20;0.85;;;14.00;99.90;;;;;;5073431;28;20502;-61
2022/10/24 03:47:10;;;;;;;2.67;1.00;;;14.00;99.90;;;;;;5076529;28;20040;-60
2022/10/24 03:49:37;;;;;;;4.22;0.95;;;14.00;99.90;;;;;;5076880;28;20060;-62
2022/10/24 03:52:04;;;;;;;4.20;1.00;;;13.90;99.90;;;;;;5076647;28;20071;-63
2022/10/24 03:54:30;;;;;;;5.95;1.10;;;13.90;99.90;;;;;;5075061;28;20116;-60
2022/10/24 03:56:57;;;;;;;4.57;0.80;;;13.90;99.90;;;;;;5074380;28;20048;-60
2022/10/24 03:59:24;;;;;;;4.75;1.20;;;13.90;99.90;;;;;;5076352;28;20098;-62
2022/10/24 04:01:50;;;;;;;4.13;1.00;;;13.90;99.90;;;;;;5074774;28;20115;-60
2022/10/24 04:04:17;;;;;;;6.45;1.17;;;13.90;99.90;;;;;;5076701;28;20037;-62
2022/10/24 04:06:44;;;;;;;4.38;1.27;;;13.90;99.90;;;;;;5065585;28;20488;-60
2022/10/24 04:09:11;;;;;;;5.03;1.20;;;13.90;99.90;;;;;;5056372;28;20049;-62
2022/10/24 04:11:37;;;;;;;7.35;1.17;;;13.80;99.90;;;;;;5056824;28;20064;-64
2022/10/24 04:14:04;;;;;;;6.53;1.25;;;13.80;99.90;;;;;;5067939;28;20060;-64
2022/10/24 04:16:33;;;;;;;6.38;1.50;;;13.80;99.90;;;;;;5075597;28;20040;-60
2022/10/24 04:19:00;;;;;;;4.95;1.10;;;13.80;99.90;;;;;;5073337;28;20033;-62
2022/10/24 04:21:27;;;;;;;3.70;1.38;;;13.80;99.90;;;;;;5074559;28;20086;-60
2022/10/24 04:23:53;;;;;;;6.28;1.45;;;13.70;99.90;;;;;;5076254;28;20060;-61
2022/10/24 04:26:20;;;;;;;4.35;1.50;;;13.70;99.90;;;;;;5074414;28;20080;-63
2022/10/24 04:28:47;;;;;;;5.70;1.38;;;13.70;99.90;;;;;;5074607;28;20087;-63
2022/10/24 04:31:13;;;;;;;5.43;1.40;;;13.70;99.90;;;;;;5074421;28;20068;-61
2022/10/24 04:33:45;;;;;;;5.50;1.23;;;13.60;99.90;;;;;;5073061;28;20368;-62
2022/10/24 04:36:11;;;;;;;4.20;1.20;;;13.60;99.90;;;;;;5076487;28;20037;-61
2022/10/24 04:38:38;;;;;;;4.32;0.98;;;13.60;99.90;;;;;;5071728;28;20040;-62
2022/10/24 04:41:05;;;;;;;4.90;1.40;;;13.60;99.90;;;;;;5075838;28;20040;-59
2022/10/24 04:43:37;;;;;;;6.45;1.10;;;13.60;99.90;;;;;;5075363;28;20060;-62
2022/10/24 04:46:04;;;;;;;4.15;1.10;;;13.60;99.90;;;;;;5073158;28;20123;-63
2022/10/24 04:48:31;;;;;;;6.00;1.15;;;13.60;99.90;;;;;;5075714;28;20533;-60
2022/10/24 04:50:57;;;;;;;3.55;0.90;;;13.50;99.90;;;;;;5074589;28;20040;-62
2022/10/24 04:53:24;;;;;;;5.05;1.40;;;13.50;99.90;;;;;;5055711;28;20075;-62
2022/10/24 04:55:51;;;;;;;5.38;0.90;;;13.50;99.90;;;;;;5058630;28;20044;-60
2022/10/24 04:58:18;;;;;;;3.88;1.27;;;13.50;99.90;;;;;;5061338;28;20028;-62
2022/10/24 05:00:47;;;;;;;6.25;1.50;;;13.40;99.90;;;;;;5072322;28;20044;-62
2022/10/24 05:03:14;;;;;;;3.67;1.10;;;13.40;99.90;;;;;;5066744;28;20036;-62
2022/10/24 05:05:40;;;;;;;5.68;1.20;;;13.30;99.90;;;;;;5074957;28;20040;-58
2022/10/24 05:08:07;;;;;;;4.78;1.23;;;13.30;99.90;;;;;;5074243;28;20480;-62
2022/10/24 05:10:34;;;;;;;7.75;1.40;;;13.20;99.90;;;;;;5075128;28;20048;-59
2022/10/24 05:13:00;;;;;;;5.38;1.73;;;13.30;99.90;;;;;;5074264;28;20079;-61
2022/10/24 05:15:28;;;;;;;3.67;1.35;;;13.20;99.90;;;;;;5074972;28;20040;-60
2022/10/24 05:17:55;;;;;;;4.10;0.98;;;13.30;99.90;;;;;;5075636;28;20039;-63
2022/10/24 05:20:22;;;;;;;4.90;0.80;;;13.30;99.90;;;;;;5071998;28;20116;-61
2022/10/24 05:22:48;;;;;;;5.43;0.90;;;13.30;99.90;;;;;;5073432;28;20075;-61
2022/10/24 05:25:15;;;;;;;2.72;0.82;;;13.30;99.90;;;;;;5070650;28;20036;-61
2022/10/24 05:27:42;;;;;;;2.83;0.80;;;13.30;99.90;;;;;;5072443;28;20040;-60
2022/10/24 05:30:09;;;;;;;3.85;1.00;;;13.40;99.90;;;;;;5072207;28;20120;-59
2022/10/24 05:32:35;;;;;;;5.18;0.85;;;13.30;99.90;;;;;;5073448;28;20106;-61
2022/10/24 05:35:05;;;;;;;3.88;0.75;;;13.30;99.90;;;;;;5075185;28;20045;-61
2022/10/24 05:37:32;;;;;;;5.00;1.08;;;13.40;99.90;;;;;;5072229;28;20444;-62
2022/10/24 05:39:58;;;;;;;3.00;1.00;;;13.30;99.90;;;;;;5074274;28;20549;-60
2022/10/24 05:42:25;;;;;;;3.90;1.10;;;13.40;99.90;;;;;;5073447;28;20120;-62
2022/10/24 05:44:52;;;;;;;4.75;0.77;;;13.30;99.90;;;;;;5071575;28;20131;-62
2022/10/24 05:47:18;;;;;;;5.18;0.77;;;13.30;99.90;;;;;;5065690;28;20072;-62
2022/10/24 05:49:45;;;;;;;3.25;0.70;;;13.30;99.90;;;;;;5073647;28;20036;-61
2022/10/24 05:52:12;;;;;;;2.63;0.70;;;13.30;99.90;;;;;;5070172;28;20082;-61
2022/10/24 05:54:39;;;;;;;5.25;0.80;;;13.30;99.90;;;;;;5066381;28;20128;-61
2022/10/24 05:57:26;;;;;;;3.10;0.75;;;13.30;99.90;;;;;;5054953;28;20069;-63
2022/10/24 05:59:53;;;;;;;3.75;0.93;;;13.30;99.90;;;;;;5068078;28;20086;-60
2022/10/24 06:02:19;;;;;;;4.47;0.70;;;13.20;99.90;;;;;;5069440;28;20032;-63
2022/10/24 06:04:47;;;;;;;2.95;0.90;;;13.20;99.90;;;;;;5071551;28;20064;-60
2022/10/24 06:07:13;;;;;;;4.07;0.75;;;13.10;99.90;;;;;;5071675;28;20060;-63
2022/10/24 06:09:40;;;;;;;3.22;0.70;;;13.00;99.90;;;;;;5067820;28;20051;-61
2022/10/24 06:12:07;;;;;;;4.18;0.85;;;13.00;99.90;;;;;;5069000;28;20146;-62
2022/10/24 06:14:34;;;;;;;4.28;0.80;;;13.00;99.90;;;;;;5073467;28;20048;-60
2022/10/24 06:17:00;;;;;;;4.15;0.80;;;13.00;99.90;;;;;;5069221;28;20395;-62
2022/10/24 06:19:27;;;;;;;3.28;0.73;;;12.90;99.90;;;;;;5066655;28;20128;-62
2022/10/24 06:21:54;;;;;;;2.20;0.65;;;12.90;99.90;;;;;;5073412;28;20048;-63
2022/10/24 06:24:20;;;;;;;2.47;0.77;;;12.80;99.90;;;;;;5071879;28;20095;-61
2022/10/24 06:26:47;;;;;;;8.05;1.08;;;12.80;99.90;;;;;;5072703;28;20068;-64
2022/10/24 06:29:14;;;;;;;3.47;0.70;;;12.80;99.90;;;;;;5074253;28;20431;-62
2022/10/24 06:31:40;;;;;;;2.22;0.75;;;12.80;99.90;;;;;;5073570;28;20051;-61
2022/10/24 06:34:07;;;;;;;3.80;0.77;;;12.80;99.90;;;;;;5073153;28;20551;-60
2022/10/24 06:36:35;;;;;;;3.75;0.73;;;12.70;99.90;;;;;;5060561;28;20049;-62
2022/10/24 06:39:02;;;;;;;3.17;0.82;;;12.70;99.90;;;;;;5071138;28;20098;-62
2022/10/24 06:41:29;;;;;;;12.90;1.20;;;12.70;99.90;;;;;;5069469;28;20065;-65
2022/10/24 06:43:56;;;;;;;2.33;0.60;;;12.60;99.90;;;;;;5053329;28;20753;-59
2022/10/24 06:46:23;;;;;;;2.42;0.70;;;12.60;99.90;;;;;;5053573;28;20425;-61
2022/10/24 06:48:49;;;;;;;7.78;0.93;;;12.60;99.90;;;;;;5054529;28;20044;-62
2022/10/24 06:51:16;;;;;;;3.45;0.90;;;12.60;99.90;;;;;;5073591;28;20052;-61
2022/10/24 06:53:43;;;;;;;3.95;0.70;;;12.60;99.90;;;;;;5068888;28;20115;-59
2022/10/24 06:56:10;;;;;;;3.22;0.75;;;12.60;99.90;;;;;;5053865;28;20080;-60
2022/10/24 06:58:37;;;;;;;6.47;1.55;;;12.60;99.90;;;;;;5053320;28;20041;-61
2022/10/24 07:01:03;;;;;;;6.47;0.95;;;12.60;99.90;;;;;;5058101;28;20132;-60
2022/10/24 07:03:31;;;;;;;3.88;0.90;;;12.60;99.90;;;;;;5067806;28;20055;-60
2022/10/24 07:05:58;;;;;;;4.88;1.00;;;12.60;99.90;;;;;;5065608;28;20120;-61
2022/10/24 07:08:24;;;;;;;4.57;0.80;;;12.60;99.90;;;;;;5066046;28;20148;-63
2022/10/24 07:10:51;;;;;;;5.97;1.00;;;12.60;99.90;;;;;;5072266;28;20040;-63
2022/10/24 07:13:18;;;;;;;9.82;1.73;;;12.60;99.90;;;;;;5069730;28;20068;-62
2022/10/24 07:15:44;;;;;;;5.18;0.75;;;12.60;99.90;;;;;;5069085;28;20041;-63
2022/10/24 07:18:11;;;;;;;4.15;0.80;;;12.60;99.90;;;;;;5070907;28;20119;-60
2022/10/24 07:20:38;;;;;;;4.15;0.70;;;12.60;99.90;;;;;;5075577;28;20044;-61
2022/10/24 07:23:09;;;;;;;7.13;1.17;;;12.60;99.90;;;;;;5073673;28;20036;-60
2022/10/24 07:25:36;;;;;;;5.47;1.13;;;12.60;99.90;;;;;;5073574;28;20127;-64
2022/10/24 07:28:03;;;;;;;7.22;1.33;;;12.60;99.90;;;;;;5074000;28;20451;-61
2022/10/24 07:30:29;;;;;;;5.05;1.63;;;12.60;99.90;;;;;;5074421;28;20067;-60
2022/10/24 07:32:56;;;;;;;3.70;1.13;;;12.60;99.90;;;;;;5075708;28;20624;-65
2022/10/24 07:35:23;;;;;;;5.53;1.00;;;12.60;99.90;;;;;;5075943;28;20111;-59
2022/10/24 07:37:50;;;;;;;3.33;0.95;;;12.70;99.90;;;;;;5075998;28;20040;-61
2022/10/24 07:40:17;;;;;;;6.22;1.20;;;12.60;99.90;;;;;;5076728;28;20091;-61
2022/10/24 07:42:44;;;;;;;5.82;1.08;;;12.70;99.90;;;;;;5075959;28;20559;-62
2022/10/24 07:45:10;;;;;;;4.68;1.15;;;12.70;99.90;;;;;;5077000;28;20124;-61
2022/10/24 07:47:37;;;;;;;3.35;0.68;;;12.70;99.90;;;;;;5077181;28;20525;-63
2022/10/24 07:50:04;;;;;;;6.57;1.10;;;12.70;99.90;;;;;;5077219;28;20082;-62
2022/10/24 07:52:30;;;;;;;4.53;0.98;;;12.80;99.90;;;;;;5076085;28;20067;-62
2022/10/24 07:54:57;;;;;;;4.07;0.82;;;12.80;99.90;;;;;;5076572;28;20102;-61
2022/10/24 07:57:24;;;;;;;5.88;1.23;;;12.80;99.90;;;;;;5076839;28;20049;-61
2022/10/24 07:59:50;;;;;;;4.15;0.63;;;12.80;99.90;;;;;;5076869;28;20508;-60
2022/10/24 08:02:17;;;;;;;4.50;1.23;;;12.90;99.90;;;;;;5076921;28;20044;-61
2022/10/24 08:04:44;;;;;;;2.95;1.08;;;12.90;99.90;;;;;;5076405;28;20036;-62
2022/10/24 08:07:14;;;;;;;4.53;1.15;;;12.90;99.90;;;;;;5076659;28;20045;-61
2022/10/24 08:09:40;;;;;;;5.10;0.90;;;12.90;99.90;;;;;;5076608;28;20484;-61
2022/10/24 08:12:07;;;;;;;6.47;1.40;;;13.00;99.90;;;;;;5076478;28;20037;-61
2022/10/24 08:14:34;;;;;;;3.78;0.77;;;13.00;99.90;;;;;;5076375;28;20086;-62
2022/10/24 08:17:00;;;;;;;5.10;0.82;;;13.00;99.90;;;;;;5076652;28;20064;-61
2022/10/24 08:19:27;;;;;;;5.93;1.25;;;13.00;99.90;;;;;;5076618;28;20123;-63
2022/10/24 08:21:54;;;;;;;6.55;1.20;;;13.10;99.90;;;;;;5076253;28;20032;-62
2022/10/24 08:24:21;;;;;;;5.32;1.05;;;13.10;99.90;;;;;;5076106;28;20087;-62
2022/10/24 08:26:47;;;;;;;7.93;1.10;;;13.10;99.90;;;;;;5075616;28;20372;-63
2022/10/24 08:29:20;;;;;;;4.63;1.17;;;13.20;99.90;;;;;;5075997;28;20091;-60
2022/10/24 08:31:47;;;;;;;4.53;1.23;;;13.20;99.90;;;;;;5076503;28;20148;-65
2022/10/24 08:34:14;;;;;;;8.02;1.38;;;13.20;99.90;;;;;;5076061;28;20037;-60
2022/10/24 08:36:40;;;;;;;9.77;1.60;;;13.30;99.90;;;;;;5074799;28;20127;-62
2022/10/24 08:39:07;;;;;;;7.63;1.50;;;13.30;99.90;;;;;;5076044;28;20040;-63
2022/10/24 08:41:34;;;;;;;6.93;0.98;;;13.30;99.90;;;;;;5075668;28;20402;-61
2022/10/24 08:44:00;;;;;;;5.95;1.35;;;13.40;99.90;;;;;;5075698;28;20037;-62
2022/10/24 08:46:27;;;;;;;3.60;0.95;;;13.40;99.90;;;;;;5075728;28;20067;-64
2022/10/24 08:48:54;;;;;;;6.72;1.52;;;13.40;99.90;;;;;;5076531;28;20087;-60
2022/10/24 08:51:21;;;;;;;8.32;1.98;;;13.50;99.90;;;;;;5075850;28;20067;-63
2022/10/24 08:53:50;;;;;;;5.50;1.20;;;13.50;99.90;;;;;;5075655;28;20099;-61
2022/10/24 08:56:16;;;;;;;5.43;1.58;;;13.50;99.90;;;;;;5075457;28;20132;-60
2022/10/24 08:58:43;;;;;;;7.32;1.27;;;13.60;99.90;;;;;;5075448;28;20094;-60
2022/10/24 09:01:10;;;;;;;7.85;1.70;;;13.70;99.90;;;;;;5075979;28;20040;-61
2022/10/24 09:03:37;;;;;;;6.97;1.27;;;13.80;99.90;;;;;;5075606;28;20064;-60
2022/10/24 09:06:24;;;;;;;5.47;1.20;;;13.90;99.90;;;;;;5074204;28;20451;-61
2022/10/24 09:08:51;;;;;;;8.13;1.50;;;14.00;99.90;;;;;;5075182;28;20083;-61
2022/10/24 09:11:17;;;;;;;5.82;1.27;;;14.10;99.90;;;;;;5074747;28;20045;-61
2022/10/24 09:13:44;;;;;;;6.53;1.20;;;14.10;99.90;;;;;;5075121;28;20124;-62
2022/10/24 09:16:11;;;;;;;5.25;1.05;;;14.20;99.90;;;;;;5075457;28;20044;-59
2022/10/24 09:18:38;;;;;;;6.05;1.10;;;14.30;99.90;;;;;;5075106;28;20044;-61
2022/10/24 09:21:04;;;;;;;5.40;1.00;;;14.30;99.90;;;;;;5075314;28;20043;-61
2022/10/24 09:23:31;;;;;;;4.35;1.00;;;14.30;99.90;;;;;;5074890;28;20488;-60
2022/10/24 09:25:58;;;;;;;5.70;1.17;;;14.30;99.90;;;;;;5075372;28;20052;-61
2022/10/24 09:28:25;;;;;;;4.25;0.95;;;14.30;99.90;;;;;;5057623;28;20040;-61
2022/10/24 09:30:52;;;;;;;7.65;2.50;;;14.30;99.90;;;;;;5075484;28;20033;-62
2022/10/24 09:33:19;;;;;;;5.60;1.25;;;14.30;99.90;;;;;;5075362;28;20037;-61
2022/10/24 09:35:45;;;;;;;4.18;0.90;;;14.30;99.90;;;;;;5074757;28;20094;-63
2022/10/24 09:38:12;;;;;;;6.05;1.10;;;14.30;99.90;;;;;;5074304;28;20435;-64
2022/10/24 09:40:39;;;;;;;4.65;0.95;;;14.30;99.90;;;;;;5074621;28;20064;-64
2022/10/24 09:43:06;;;;;;;6.95;1.20;;;14.40;99.90;;;;;;5075122;28;20051;-61
2022/10/24 09:45:32;;;;;;;5.28;1.20;;;14.40;99.90;;;;;;5074119;28;20518;-64
2022/10/24 09:47:59;;;;;;;5.45;1.20;;;14.40;99.90;;;;;;5073702;28;20456;-64
2022/10/24 09:50:26;;;;;;;6.00;1.00;;;14.40;99.90;;;;;;5074427;28;20045;-63
2022/10/24 09:52:52;;;;;;;5.97;1.23;;;14.50;99.90;;;;;;5074440;28;20051;-61
2022/10/24 09:55:19;;;;;;;4.97;1.25;;;14.50;99.90;;;;;;5074959;28;20044;-62
2022/10/24 09:57:46;;;;;;;7.70;1.13;;;14.50;99.90;;;;;;5074092;28;20048;-63
2022/10/24 10:00:13;;;;;;;6.65;1.10;;;14.60;99.90;;;;;;5073185;28;20036;-62
2022/10/24 10:02:40;;;;;;;5.53;1.13;;;14.70;99.90;;;;;;5074086;28;20520;-62
2022/10/24 10:05:06;;;;;;;3.70;1.17;;;14.70;99.90;;;;;;5074375;28;20094;-60
2022/10/24 10:07:33;;;;;;;7.03;1.23;;;14.80;99.90;;;;;;5073924;28;20515;-63
2022/10/24 10:10:00;;;;;;;6.13;1.15;;;14.80;99.90;;;;;;5073447;28;20036;-62
2022/10/24 10:12:26;;;;;;;5.88;1.17;;;14.90;99.90;;;;;;5074151;28;20127;-62
2022/10/24 10:14:53;;;;;;;6.13;1.40;;;14.90;99.90;;;;;;5074229;28;20090;-60
2022/10/24 10:17:20;;;;;;;6.05;1.27;;;14.90;99.90;;;;;;5074285;28;20045;-62
2022/10/24 10:19:47;;;;;;;8.50;1.67;;;14.90;99.90;;;;;;5073883;28;20036;-62
2022/10/24 10:22:14;;;;;;;5.50;1.38;;;15.00;99.90;;;;;;5073853;28;20036;-64
2022/10/24 10:24:41;;;;;;;6.25;1.20;;;15.00;99.90;;;;;;5073551;28;20076;-62
2022/10/24 10:27:07;;;;;;;7.13;1.30;;;15.00;99.90;;;;;;5073798;28;20068;-61
2022/10/24 10:29:34;;;;;;;9.02;1.10;;;15.10;99.90;;;;;;5074320;28;20044;-62
2022/10/24 10:32:01;;;;;;;5.00;1.20;;;15.10;99.90;;;;;;5073723;28;20127;-65
2022/10/24 10:34:27;;;;;;;9.38;1.40;;;15.10;99.90;;;;;;5073643;28;20079;-63
2022/10/24 10:36:54;;;;;;;6.05;1.00;;;15.00;99.90;;;;;;5073607;28;20040;-61
2022/10/24 10:39:21;;;;;;;6.50;1.30;;;15.10;99.90;;;;;;5074377;28;20380;-61
2022/10/24 10:41:48;;;;;;;7.32;1.27;;;15.20;99.90;;;;;;5073480;28;20135;-62
2022/10/24 10:44:14;;;;;;;7.15;1.48;;;15.20;99.90;;;;;;5073455;28;20044;-62
2022/10/24 10:46:41;;;;;;;4.85;1.10;;;15.30;99.90;;;;;;5073945;28;20037;-61
2022/10/24 10:49:08;;;;;;;5.70;1.33;;;15.30;99.90;;;;;;5074046;28;20395;-61
2022/10/24 10:51:34;;;;;;;6.85;1.23;;;15.40;99.90;;;;;;5073505;28;20044;-59
2022/10/24 10:54:01;;;;;;;5.15;1.30;;;15.40;99.90;;;;;;5073317;28;20059;-63
2022/10/24 10:56:28;;;;;;;8.07;1.75;;;15.40;99.90;;;;;;5073435;28;20139;-61
2022/10/24 10:58:55;;;;;;;4.35;1.20;;;15.40;99.90;;;;;;5073328;28;20492;-63
2022/10/24 11:01:21;;;;;;;10.55;2.13;;;15.50;99.90;;;;;;5073199;28;20052;-63
2022/10/24 11:03:48;;;;;;;10.00;2.30;;;15.50;99.90;;;;;;5073824;28;20051;-63
2022/10/24 11:06:15;;;;;;;7.07;1.65;;;15.50;99.90;;;;;;5073652;28;20063;-63
2022/10/24 11:08:42;;;;;;;7.88;1.40;;;15.50;99.90;;;;;;5065526;28;20407;-62
2022/10/24 11:11:10;;;;;;;5.10;1.35;;;15.60;99.90;;;;;;5068867;28;20048;-59
2022/10/24 11:13:37;;;;;;;5.82;1.33;;;15.60;99.90;;;;;;5070719;28;20053;-61
2022/10/24 11:16:03;;;;;;;6.63;1.30;;;15.60;99.90;;;;;;5071229;28;20059;-62
2022/10/24 11:18:30;;;;;;;5.40;1.30;;;15.60;99.90;;;;;;5071102;28;20090;-61
2022/10/24 11:21:01;;;;;;;8.63;1.20;;;15.60;99.90;;;;;;5072097;28;20399;-60
2022/10/24 11:23:28;;;;;;;5.85;1.70;;;15.60;99.90;;;;;;5071023;28;20033;-60
2022/10/24 11:25:55;;;;;;;5.50;1.40;;;15.60;99.90;;;;;;5071216;28;20071;-62
2022/10/24 11:28:22;;;;;;;7.22;1.73;;;15.60;99.90;;;;;;5072282;28;20064;-61
2022/10/24 11:30:50;;;;;;;10.02;1.75;;;15.60;99.90;;;;;;5069326;28;20044;-58
2022/10/24 11:33:17;;;;;;;7.75;1.42;;;15.70;99.90;;;;;;5072210;28;20083;-60
2022/10/24 11:35:44;;;;;;;6.47;1.70;;;15.70;99.90;;;;;;5072068;28;20036;-60
2022/10/24 11:38:11;;;;;;;9.93;1.60;;;15.80;99.90;;;;;;5072683;28;20457;-60
2022/10/24 11:40:37;;;;;;;9.98;1.58;;;15.80;99.90;;;;;;5068863;28;20128;-63
2022/10/24 11:43:04;;;;;;;5.15;1.30;;;15.90;99.90;;;;;;5069612;28;20128;-62
2022/10/24 11:45:31;;;;;;;10.13;1.40;;;15.90;99.90;;;;;;5072690;28;20102;-61
2022/10/24 11:47:58;;;;;;;6.90;1.67;;;16.00;99.90;;;;;;5072713;28;20476;-60
2022/10/24 11:50:25;;;;;;;8.55;1.60;;;16.10;99.90;;;;;;5072477;28;20057;-63
2022/10/24 11:52:52;;;;;;;4.03;1.15;;;16.10;99.90;;;;;;5072748;28;20157;-61
2022/10/24 11:55:19;;;;;;;6.38;1.58;;;16.30;99.90;;;;;;5072671;28;20056;-60
2022/10/24 11:57:46;;;;;;;7.65;1.55;;;16.50;99.90;;;;;;5071160;28;20052;-61
2022/10/24 12:00:13;;;;;;;5.90;1.15;;;16.60;99.90;;;;;;5072754;28;20505;-62
2022/10/24 12:02:39;;;;;;;8.70;1.92;;;16.70;99.90;;;;;;5075940;28;20036;-62
2022/10/24 12:05:06;;;;;;;9.00;1.60;;;16.80;99.90;;;;;;5075011;28;20044;-61
2022/10/24 12:07:33;;;;;;;11.45;1.58;;;16.90;99.90;;;;;;5073467;28;20048;-62
2022/10/24 12:10:00;;;;;;;7.72;1.42;;;17.00;99.90;;;;;;5075027;28;20392;-62
2022/10/24 12:12:26;;;;;;;5.60;1.25;;;17.10;99.90;;;;;;5075984;28;20041;-62
2022/10/24 12:14:54;;;;;;;7.78;1.73;;;17.10;99.90;;;;;;5075845;28;20049;-65
2022/10/24 12:17:20;;;;;;;9.02;2.08;;;17.10;99.90;;;;;;5075046;28;20049;-62
2022/10/24 12:19:47;;;;;;;7.18;1.42;;;17.20;99.90;;;;;;5075808;28;20127;-61
2022/10/24 12:22:14;;;;;;;8.50;1.98;;;17.20;99.90;;;;;;5076060;28;20032;-62
2022/10/24 12:24:41;;;;;;;11.25;2.60;;;17.20;99.90;;;;;;5075631;28;20072;-63
2022/10/24 12:27:07;;;;;;;10.65;3.42;;;17.20;99.90;;;;;;5075811;28;20048;-62
2022/10/24 12:29:34;;;;;;;18.30;8.90;;;17.30;99.90;;;;;;5075606;28;20093;-62
2022/10/24 12:32:01;;;;;;;14.73;4.03;;;17.30;99.90;;;;;;5075773;28;20451;-63
2022/10/24 12:34:27;;;;;;;15.82;8.05;;;17.30;99.90;;;;;;5074907;28;20083;-62
2022/10/24 12:36:54;;;;;;;16.15;6.88;;;17.30;99.90;;;;;;5073901;28;20106;-60
2022/10/24 12:39:21;;;;;;;17.85;7.07;;;17.20;99.90;;;;;;5074866;28;20051;-60
2022/10/24 12:41:48;;;;;;;15.98;5.60;;;17.20;99.90;;;;;;5074759;28;20414;-64
2022/10/24 12:44:14;;;;;;;12.40;2.60;;;17.10;99.90;;;;;;5073866;28;20052;-61